Indian Lake, NY (12842)

3:36 AM EDT on September 02, 2015 (GMT -0400)
Indian Lake, NY Big Brook Rd. | | Change Station
CLOSE
Current Station
Personal Weather Station
Location: Indian Lake, NY
Elevation: 1644 ft
Nearby Weather Stations

Elev 1644 ft 43.76 °N, 74.25 °W | Updated 21 seconds ago

Mostly Cloudy
Mostly Cloudy
56.6 °F
Feels Like 56.6 °F
N
0.0
Wind Variable Wind from ENE
Gusts 1.0 mph

Today
High -- | Low -- °F
--% Chance of Precip.
Yesterday
High -- | Low -- °F
Precip. -- in
6:21 AM 7:31 PM
Waning Gibbous, 82% visible
Pressure 30.02 in
Visibility 4.0 miles
Clouds Scattered Clouds 500 ft
Dew Point 56 °F
Humidity 98%
Rainfall 0.00 in
Snow Depth Not available.
UV 0 out of 12
Pollen 9.00 out of 12
Air Quality Not available.
Flu Activity Not available.
SPECI KGFL 020728Z AUTO 00000KT 4SM BR SCT005 14/13 A3002 RMK AO2 T01440133
Pressure 30.02 in
Visibility 4.0 miles
Clouds Scattered Clouds 500 ft
Dew Point 56 °F
Humidity 98%
Rainfall 0.00 in
Snow Depth Not available.
UV 0 out of 12
Pollen 9.00 out of 12
Air Quality Not available.
Flu Activity Not available.
SPECI KGFL 020728Z AUTO 00000KT 4SM BR SCT005 14/13 A3002 RMK AO2 T01440133

10-Day Weather Forecast

×

Almanac

Astronomy

Sep. 02, 2015 Rise Set
Actual Time
Civil Twilight
Nautical Twilight
Astronomical Twilight
Moon
Length of Visible Light
Length of Day
Tomorrow will be .
, % of the Moon is Illuminated

Today's Extremes

State Highs State Lows

Community

WunderPhotos

Upload Photos

1,851,723 photos uploaded!

WunderBlogs® & News

Nearby

Air Quality

  Air Quality AQ Index Pollutant
Not available.

Snow Depth

Station Depth Elevation

Earthquake Activity

City Distance Mag. Time & Date
Minimum magnitude displayed is 2.5.

Coastal Water Temperatures

Place Temperature

Stations

Nearby Weather Stations

Station Location Temp. Windchill Dew Point Humidity Wind Precip. Elev Updated Type